sensor_id;sensor_type;location;lat;lon;timestamp;P1;durP1;ratioP1;P2;durP2;ratioP2
1276;SDS011;631;51.024;13.826;2022-08-19T00:00:25;18.87;;;17.40;;
1276;SDS011;631;51.024;13.826;2022-08-19T00:02:52;19.70;;;18.10;;
1276;SDS011;631;51.024;13.826;2022-08-19T00:05:18;20.43;;;18.63;;
1276;SDS011;631;51.024;13.826;2022-08-19T00:07:44;19.73;;;18.10;;
1276;SDS011;631;51.024;13.826;2022-08-19T00:10:11;19.43;;;17.93;;
1276;SDS011;631;51.024;13.826;2022-08-19T00:12:38;20.43;;;18.60;;
1276;SDS011;631;51.024;13.826;2022-08-19T00:15:05;19.90;;;18.20;;
1276;SDS011;631;51.024;13.826;2022-08-19T00:17:38;18.97;;;17.27;;
1276;SDS011;631;51.024;13.826;2022-08-19T00:20:04;19.00;;;17.40;;
1276;SDS011;631;51.024;13.826;2022-08-19T00:22:31;21.70;;;19.57;;
1276;SDS011;631;51.024;13.826;2022-08-19T00:24:58;21.43;;;19.57;;
1276;SDS011;631;51.024;13.826;2022-08-19T00:27:24;21.07;;;19.27;;
1276;SDS011;631;51.024;13.826;2022-08-19T00:29:49;20.97;;;19.07;;
1276;SDS011;631;51.024;13.826;2022-08-19T00:32:15;21.87;;;19.97;;
1276;SDS011;631;51.024;13.826;2022-08-19T00:34:42;20.93;;;19.03;;
1276;SDS011;631;51.024;13.826;2022-08-19T00:37:08;21.20;;;19.20;;
1276;SDS011;631;51.024;13.826;2022-08-19T00:39:34;21.00;;;19.00;;
1276;SDS011;631;51.024;13.826;2022-08-19T00:41:59;22.10;;;20.07;;
1276;SDS011;631;51.024;13.826;2022-08-19T00:44:26;21.50;;;19.57;;
1276;SDS011;631;51.024;13.826;2022-08-19T00:46:54;21.30;;;19.40;;
1276;SDS011;631;51.024;13.826;2022-08-19T00:49:37;21.40;;;19.60;;
1276;SDS011;631;51.024;13.826;2022-08-19T00:52:15;22.90;;;20.80;;
1276;SDS011;631;51.024;13.826;2022-08-19T00:54:46;21.67;;;19.67;;
1276;SDS011;631;51.024;13.826;2022-08-19T00:57:16;21.73;;;19.87;;
1276;SDS011;631;51.024;13.826;2022-08-19T00:59:44;21.70;;;19.90;;
1276;SDS011;631;51.024;13.826;2022-08-19T01:02:12;22.20;;;20.20;;
1276;SDS011;631;51.024;13.826;2022-08-19T01:04:42;22.70;;;20.70;;
1276;SDS011;631;51.024;13.826;2022-08-19T01:07:07;22.43;;;20.43;;
1276;SDS011;631;51.024;13.826;2022-08-19T01:09:33;22.60;;;20.57;;
1276;SDS011;631;51.024;13.826;2022-08-19T01:11:59;21.27;;;19.47;;
1276;SDS011;631;51.024;13.826;2022-08-19T01:14:25;21.77;;;19.87;;
1276;SDS011;631;51.024;13.826;2022-08-19T01:16:51;23.70;;;21.60;;
1276;SDS011;631;51.024;13.826;2022-08-19T01:21:59;21.20;;;19.40;;
1276;SDS011;631;51.024;13.826;2022-08-19T01:24:30;22.57;;;20.47;;
1276;SDS011;631;51.024;13.826;2022-08-19T01:26:56;23.30;;;21.37;;
1276;SDS011;631;51.024;13.826;2022-08-19T01:29:23;24.30;;;22.20;;
1276;SDS011;631;51.024;13.826;2022-08-19T01:31:48;23.70;;;21.60;;
1276;SDS011;631;51.024;13.826;2022-08-19T01:34:17;21.93;;;20.03;;
1276;SDS011;631;51.024;13.826;2022-08-19T01:36:43;23.57;;;21.47;;
1276;SDS011;631;51.024;13.826;2022-08-19T01:39:13;24.47;;;22.00;;
1276;SDS011;631;51.024;13.826;2022-08-19T01:41:40;23.00;;;20.90;;
1276;SDS011;631;51.024;13.826;2022-08-19T01:44:06;24.43;;;22.23;;
1276;SDS011;631;51.024;13.826;2022-08-19T01:46:33;23.97;;;21.97;;
1276;SDS011;631;51.024;13.826;2022-08-19T01:48:59;23.80;;;21.70;;
1276;SDS011;631;51.024;13.826;2022-08-19T01:51:25;24.07;;;21.77;;
1276;SDS011;631;51.024;13.826;2022-08-19T01:53:51;24.20;;;22.00;;
1276;SDS011;631;51.024;13.826;2022-08-19T01:56:17;24.30;;;22.20;;
1276;SDS011;631;51.024;13.826;2022-08-19T01:58:45;23.10;;;21.00;;
1276;SDS011;631;51.024;13.826;2022-08-19T02:01:16;24.17;;;22.00;;
1276;SDS011;631;51.024;13.826;2022-08-19T02:03:42;23.70;;;21.60;;
1276;SDS011;631;51.024;13.826;2022-08-19T02:06:08;24.50;;;22.30;;
1276;SDS011;631;51.024;13.826;2022-08-19T02:08:35;23.83;;;21.83;;
1276;SDS011;631;51.024;13.826;2022-08-19T02:11:03;24.83;;;22.73;;
1276;SDS011;631;51.024;13.826;2022-08-19T02:13:29;24.43;;;22.13;;
1276;SDS011;631;51.024;13.826;2022-08-19T02:15:55;25.40;;;23.10;;
1276;SDS011;631;51.024;13.826;2022-08-19T02:18:21;23.83;;;21.87;;
1276;SDS011;631;51.024;13.826;2022-08-19T02:20:47;25.30;;;23.10;;
1276;SDS011;631;51.024;13.826;2022-08-19T02:23:13;24.20;;;22.17;;
1276;SDS011;631;51.024;13.826;2022-08-19T02:25:40;22.87;;;20.73;;
1276;SDS011;631;51.024;13.826;2022-08-19T02:28:06;25.00;;;22.80;;
1276;SDS011;631;51.024;13.826;2022-08-19T02:30:32;23.50;;;21.50;;
1276;SDS011;631;51.024;13.826;2022-08-19T02:32:58;24.50;;;22.40;;
1276;SDS011;631;51.024;13.826;2022-08-19T02:35:24;25.67;;;23.47;;
1276;SDS011;631;51.024;13.826;2022-08-19T02:37:50;25.43;;;23.23;;
1276;SDS011;631;51.024;13.826;2022-08-19T02:40:34;25.07;;;22.77;;
1276;SDS011;631;51.024;13.826;2022-08-19T02:43:03;26.73;;;24.30;;
1276;SDS011;631;51.024;13.826;2022-08-19T02:45:36;24.63;;;22.43;;
1276;SDS011;631;51.024;13.826;2022-08-19T02:48:04;25.10;;;22.70;;
1276;SDS011;631;51.024;13.826;2022-08-19T02:50:30;24.87;;;22.67;;
1276;SDS011;631;51.024;13.826;2022-08-19T02:52:56;23.57;;;21.57;;
1276;SDS011;631;51.024;13.826;2022-08-19T02:55:22;26.20;;;23.63;;
1276;SDS011;631;51.024;13.826;2022-08-19T02:57:48;24.80;;;22.70;;
1276;SDS011;631;51.024;13.826;2022-08-19T03:00:14;24.40;;;22.40;;
1276;SDS011;631;51.024;13.826;2022-08-19T03:02:40;25.53;;;23.43;;
1276;SDS011;631;51.024;13.826;2022-08-19T03:05:06;24.67;;;22.60;;
1276;SDS011;631;51.024;13.826;2022-08-19T03:07:34;25.40;;;23.20;;
1276;SDS011;631;51.024;13.826;2022-08-19T03:10:00;24.57;;;22.53;;
1276;SDS011;631;51.024;13.826;2022-08-19T03:12:26;25.13;;;22.83;;
1276;SDS011;631;51.024;13.826;2022-08-19T03:14:51;24.23;;;22.23;;
1276;SDS011;631;51.024;13.826;2022-08-19T03:17:17;24.87;;;22.67;;
1276;SDS011;631;51.024;13.826;2022-08-19T03:19:43;24.60;;;22.60;;
1276;SDS011;631;51.024;13.826;2022-08-19T03:22:09;25.07;;;22.80;;
1276;SDS011;631;51.024;13.826;2022-08-19T03:24:35;28.07;;;25.60;;
1276;SDS011;631;51.024;13.826;2022-08-19T03:27:01;25.83;;;23.63;;
1276;SDS011;631;51.024;13.826;2022-08-19T03:29:29;25.37;;;23.17;;
1276;SDS011;631;51.024;13.826;2022-08-19T03:32:00;28.33;;;25.83;;
1276;SDS011;631;51.024;13.826;2022-08-19T03:34:28;26.87;;;24.57;;
1276;SDS011;631;51.024;13.826;2022-08-19T03:36:57;25.90;;;23.70;;
1276;SDS011;631;51.024;13.826;2022-08-19T03:39:25;27.23;;;24.93;;
1276;SDS011;631;51.024;13.826;2022-08-19T03:41:52;27.67;;;24.87;;
1276;SDS011;631;51.024;13.826;2022-08-19T03:44:22;27.20;;;24.87;;
1276;SDS011;631;51.024;13.826;2022-08-19T03:46:52;27.70;;;25.20;;
1276;SDS011;631;51.024;13.826;2022-08-19T03:49:20;26.60;;;24.10;;
1276;SDS011;631;51.024;13.826;2022-08-19T03:51:48;26.60;;;24.30;;
1276;SDS011;631;51.024;13.826;2022-08-19T03:54:17;27.50;;;24.93;;
1276;SDS011;631;51.024;13.826;2022-08-19T03:56:45;26.70;;;24.30;;
1276;SDS011;631;51.024;13.826;2022-08-19T03:59:13;27.90;;;25.50;;
1276;SDS011;631;51.024;13.826;2022-08-19T04:01:41;27.50;;;25.10;;
1276;SDS011;631;51.024;13.826;2022-08-19T04:04:07;27.20;;;24.90;;
1276;SDS011;631;51.024;13.826;2022-08-19T04:06:34;27.80;;;25.10;;
1276;SDS011;631;51.024;13.826;2022-08-19T04:09:02;26.63;;;24.23;;
1276;SDS011;631;51.024;13.826;2022-08-19T04:11:30;28.03;;;25.17;;
1276;SDS011;631;51.024;13.826;2022-08-19T04:14:00;27.87;;;25.37;;
1276;SDS011;631;51.024;13.826;2022-08-19T04:16:26;27.40;;;25.07;;
1276;SDS011;631;51.024;13.826;2022-08-19T04:18:53;25.70;;;23.50;;
1276;SDS011;631;51.024;13.826;2022-08-19T04:21:22;27.47;;;25.20;;
1276;SDS011;631;51.024;13.826;2022-08-19T04:23:49;26.57;;;24.17;;
1276;SDS011;631;51.024;13.826;2022-08-19T04:26:16;28.10;;;25.60;;
1276;SDS011;631;51.024;13.826;2022-08-19T04:28:43;27.87;;;25.60;;
1276;SDS011;631;51.024;13.826;2022-08-19T04:31:13;28.93;;;26.33;;
1276;SDS011;631;51.024;13.826;2022-08-19T04:33:41;27.07;;;24.73;;
1276;SDS011;631;51.024;13.826;2022-08-19T04:36:06;26.17;;;23.87;;
1276;SDS011;631;51.024;13.826;2022-08-19T04:38:32;27.70;;;25.20;;
1276;SDS011;631;51.024;13.826;2022-08-19T04:40:58;26.87;;;24.47;;
1276;SDS011;631;51.024;13.826;2022-08-19T04:43:44;27.93;;;25.53;;
1276;SDS011;631;51.024;13.826;2022-08-19T04:46:13;28.87;;;26.47;;
1276;SDS011;631;51.024;13.826;2022-08-19T04:48:39;28.80;;;26.00;;
1276;SDS011;631;51.024;13.826;2022-08-19T04:51:06;29.20;;;26.73;;
1276;SDS011;631;51.024;13.826;2022-08-19T04:53:35;29.30;;;26.70;;
1276;SDS011;631;51.024;13.826;2022-08-19T04:56:10;27.43;;;24.83;;
1276;SDS011;631;51.024;13.826;2022-08-19T04:58:38;29.83;;;27.23;;
1276;SDS011;631;51.024;13.826;2022-08-19T05:01:07;27.30;;;24.90;;
1276;SDS011;631;51.024;13.826;2022-08-19T05:03:35;28.60;;;25.90;;
1276;SDS011;631;51.024;13.826;2022-08-19T05:06:08;26.13;;;23.70;;
1276;SDS011;631;51.024;13.826;2022-08-19T05:08:36;27.60;;;25.00;;
1276;SDS011;631;51.024;13.826;2022-08-19T05:14:06;27.27;;;24.73;;
1276;SDS011;631;51.024;13.826;2022-08-19T05:16:33;27.87;;;25.23;;
1276;SDS011;631;51.024;13.826;2022-08-19T05:18:59;26.57;;;24.33;;
1276;SDS011;631;51.024;13.826;2022-08-19T05:21:43;27.50;;;24.97;;
1276;SDS011;631;51.024;13.826;2022-08-19T05:24:28;28.97;;;26.23;;
1276;SDS011;631;51.024;13.826;2022-08-19T05:26:55;28.83;;;26.33;;
1276;SDS011;631;51.024;13.826;2022-08-19T05:29:25;29.43;;;26.53;;
1276;SDS011;631;51.024;13.826;2022-08-19T05:31:52;27.37;;;24.97;;
1276;SDS011;631;51.024;13.826;2022-08-19T05:34:19;29.70;;;27.00;;
1276;SDS011;631;51.024;13.826;2022-08-19T05:36:47;28.43;;;25.70;;
1276;SDS011;631;51.024;13.826;2022-08-19T05:39:15;29.97;;;27.27;;
1276;SDS011;631;51.024;13.826;2022-08-19T05:41:44;30.70;;;28.00;;
1276;SDS011;631;51.024;13.826;2022-08-19T05:44:12;28.90;;;26.10;;
1276;SDS011;631;51.024;13.826;2022-08-19T05:46:38;30.40;;;27.70;;
1276;SDS011;631;51.024;13.826;2022-08-19T05:49:05;29.50;;;26.80;;
1276;SDS011;631;51.024;13.826;2022-08-19T05:51:32;28.77;;;26.07;;
1276;SDS011;631;51.024;13.826;2022-08-19T05:53:59;27.87;;;25.37;;
1276;SDS011;631;51.024;13.826;2022-08-19T05:56:25;29.27;;;26.57;;
1276;SDS011;631;51.024;13.826;2022-08-19T05:58:51;29.50;;;26.80;;
1276;SDS011;631;51.024;13.826;2022-08-19T06:01:19;28.33;;;25.77;;
1276;SDS011;631;51.024;13.826;2022-08-19T06:03:45;28.87;;;26.10;;
1276;SDS011;631;51.024;13.826;2022-08-19T06:06:13;27.77;;;25.27;;
1276;SDS011;631;51.024;13.826;2022-08-19T06:08:40;29.00;;;26.30;;
1276;SDS011;631;51.024;13.826;2022-08-19T06:11:21;30.00;;;27.20;;
1276;SDS011;631;51.024;13.826;2022-08-19T06:13:59;29.37;;;26.53;;
1276;SDS011;631;51.024;13.826;2022-08-19T06:16:27;28.50;;;25.90;;
1276;SDS011;631;51.024;13.826;2022-08-19T06:18:53;28.40;;;25.77;;
1276;SDS011;631;51.024;13.826;2022-08-19T06:21:22;29.10;;;26.47;;
1276;SDS011;631;51.024;13.826;2022-08-19T06:23:50;27.50;;;24.90;;
1276;SDS011;631;51.024;13.826;2022-08-19T06:26:17;27.07;;;24.57;;
1276;SDS011;631;51.024;13.826;2022-08-19T06:28:45;25.87;;;23.57;;
1276;SDS011;631;51.024;13.826;2022-08-19T06:31:15;27.27;;;24.80;;
1276;SDS011;631;51.024;13.826;2022-08-19T06:33:43;24.93;;;22.63;;
1276;SDS011;631;51.024;13.826;2022-08-19T06:36:16;23.70;;;21.60;;
1276;SDS011;631;51.024;13.826;2022-08-19T06:38:43;24.97;;;22.67;;
1276;SDS011;631;51.024;13.826;2022-08-19T06:41:09;23.77;;;21.50;;
1276;SDS011;631;51.024;13.826;2022-08-19T06:43:34;22.97;;;20.97;;
1276;SDS011;631;51.024;13.826;2022-08-19T06:46:01;22.43;;;20.53;;
1276;SDS011;631;51.024;13.826;2022-08-19T06:48:28;22.43;;;20.53;;
1276;SDS011;631;51.024;13.826;2022-08-19T06:50:54;21.00;;;19.20;;
1276;SDS011;631;51.024;13.826;2022-08-19T06:53:20;20.40;;;18.50;;
1276;SDS011;631;51.024;13.826;2022-08-19T06:55:46;20.33;;;18.70;;
1276;SDS011;631;51.024;13.826;2022-08-19T06:58:12;20.77;;;18.97;;
1276;SDS011;631;51.024;13.826;2022-08-19T07:00:38;20.80;;;19.00;;
1276;SDS011;631;51.024;13.826;2022-08-19T07:03:04;21.07;;;19.07;;
1276;SDS011;631;51.024;13.826;2022-08-19T07:05:30;19.97;;;18.27;;
1276;SDS011;631;51.024;13.826;2022-08-19T07:07:55;19.10;;;17.20;;
1276;SDS011;631;51.024;13.826;2022-08-19T07:10:22;20.33;;;18.53;;
1276;SDS011;631;51.024;13.826;2022-08-19T07:12:47;19.97;;;18.20;;
1276;SDS011;631;51.024;13.826;2022-08-19T07:15:15;18.73;;;17.03;;
1276;SDS011;631;51.024;13.826;2022-08-19T07:17:41;21.13;;;19.27;;
1276;SDS011;631;51.024;13.826;2022-08-19T07:20:08;21.80;;;19.67;;
1276;SDS011;631;51.024;13.826;2022-08-19T07:22:34;21.10;;;19.20;;
1276;SDS011;631;51.024;13.826;2022-08-19T07:25:05;20.40;;;18.50;;
1276;SDS011;631;51.024;13.826;2022-08-19T07:27:32;19.83;;;18.13;;
1276;SDS011;631;51.024;13.826;2022-08-19T07:29:58;20.60;;;18.80;;
1276;SDS011;631;51.024;13.826;2022-08-19T07:32:24;20.50;;;18.60;;
1276;SDS011;631;51.024;13.826;2022-08-19T07:34:51;20.80;;;18.80;;
1276;SDS011;631;51.024;13.826;2022-08-19T07:37:17;22.00;;;19.63;;
1276;SDS011;631;51.024;13.826;2022-08-19T07:39:43;22.70;;;19.77;;
1276;SDS011;631;51.024;13.826;2022-08-19T07:42:09;22.33;;;20.20;;
1276;SDS011;631;51.024;13.826;2022-08-19T07:44:36;22.60;;;20.50;;
1276;SDS011;631;51.024;13.826;2022-08-19T07:47:02;23.03;;;20.93;;
1276;SDS011;631;51.024;13.826;2022-08-19T07:49:28;22.77;;;20.77;;
1276;SDS011;631;51.024;13.826;2022-08-19T07:51:56;24.23;;;21.93;;
1276;SDS011;631;51.024;13.826;2022-08-19T07:54:27;23.03;;;20.60;;
1276;SDS011;631;51.024;13.826;2022-08-19T07:56:56;24.83;;;22.20;;
1276;SDS011;631;51.024;13.826;2022-08-19T07:59:22;25.13;;;22.40;;
1276;SDS011;631;51.024;13.826;2022-08-19T08:01:49;23.93;;;21.67;;
1276;SDS011;631;51.024;13.826;2022-08-19T08:04:15;25.10;;;22.80;;
1276;SDS011;631;51.024;13.826;2022-08-19T08:07:00;24.53;;;22.17;;
1276;SDS011;631;51.024;13.826;2022-08-19T08:09:44;26.70;;;24.03;;
1276;SDS011;631;51.024;13.826;2022-08-19T08:12:12;26.53;;;24.07;;
1276;SDS011;631;51.024;13.826;2022-08-19T08:14:50;27.60;;;24.93;;
1276;SDS011;631;51.024;13.826;2022-08-19T08:17:18;25.87;;;23.07;;
1276;SDS011;631;51.024;13.826;2022-08-19T08:19:46;27.17;;;24.50;;
1276;SDS011;631;51.024;13.826;2022-08-19T08:22:14;28.20;;;25.40;;
1276;SDS011;631;51.024;13.826;2022-08-19T08:25:03;26.70;;;24.10;;
1276;SDS011;631;51.024;13.826;2022-08-19T08:27:31;28.07;;;25.20;;
1276;SDS011;631;51.024;13.826;2022-08-19T08:30:00;27.60;;;24.73;;
1276;SDS011;631;51.024;13.826;2022-08-19T08:32:25;27.50;;;24.90;;
1276;SDS011;631;51.024;13.826;2022-08-19T08:34:51;27.90;;;25.40;;
1276;SDS011;631;51.024;13.826;2022-08-19T08:37:17;26.20;;;23.80;;
1276;SDS011;631;51.024;13.826;2022-08-19T08:39:42;24.67;;;22.40;;
1276;SDS011;631;51.024;13.826;2022-08-19T08:42:14;26.30;;;23.90;;
1276;SDS011;631;51.024;13.826;2022-08-19T08:45:14;25.00;;;22.70;;
1276;SDS011;631;51.024;13.826;2022-08-19T08:47:43;24.50;;;22.20;;
1276;SDS011;631;51.024;13.826;2022-08-19T08:50:16;25.50;;;23.10;;
1276;SDS011;631;51.024;13.826;2022-08-19T08:52:46;26.33;;;23.87;;
1276;SDS011;631;51.024;13.826;2022-08-19T08:55:15;23.70;;;21.40;;
1276;SDS011;631;51.024;13.826;2022-08-19T09:00:17;24.63;;;22.43;;
1276;SDS011;631;51.024;13.826;2022-08-19T09:02:50;24.77;;;22.50;;
1276;SDS011;631;51.024;13.826;2022-08-19T09:05:15;24.70;;;22.50;;
1276;SDS011;631;51.024;13.826;2022-08-19T09:10:29;22.90;;;20.60;;
1276;SDS011;631;51.024;13.826;2022-08-19T09:15:40;20.27;;;18.53;;
1276;SDS011;631;51.024;13.826;2022-08-19T09:18:11;19.67;;;17.97;;
1276;SDS011;631;51.024;13.826;2022-08-19T09:20:36;22.10;;;19.90;;
1276;SDS011;631;51.024;13.826;2022-08-19T09:23:02;20.37;;;18.53;;
1276;SDS011;631;51.024;13.826;2022-08-19T09:25:29;19.90;;;18.20;;
1276;SDS011;631;51.024;13.826;2022-08-19T09:27:56;19.40;;;17.80;;
1276;SDS011;631;51.024;13.826;2022-08-19T09:30:23;18.37;;;16.87;;
1276;SDS011;631;51.024;13.826;2022-08-19T09:32:51;18.80;;;17.20;;
1276;SDS011;631;51.024;13.826;2022-08-19T09:35:18;18.43;;;16.93;;
1276;SDS011;631;51.024;13.826;2022-08-19T09:37:44;17.37;;;15.90;;
1276;SDS011;631;51.024;13.826;2022-08-19T09:40:10;17.67;;;16.23;;
1276;SDS011;631;51.024;13.826;2022-08-19T09:42:36;18.53;;;16.87;;
1276;SDS011;631;51.024;13.826;2022-08-19T09:45:02;18.07;;;16.53;;
1276;SDS011;631;51.024;13.826;2022-08-19T09:47:28;17.20;;;15.80;;
1276;SDS011;631;51.024;13.826;2022-08-19T09:49:54;17.80;;;16.07;;
1276;SDS011;631;51.024;13.826;2022-08-19T09:52:20;18.83;;;17.33;;
1276;SDS011;631;51.024;13.826;2022-08-19T09:54:45;17.30;;;15.83;;
1276;SDS011;631;51.024;13.826;2022-08-19T09:57:11;19.20;;;17.60;;
1276;SDS011;631;51.024;13.826;2022-08-19T09:59:38;17.17;;;15.67;;
1276;SDS011;631;51.024;13.826;2022-08-19T10:02:05;18.50;;;17.10;;
1276;SDS011;631;51.024;13.826;2022-08-19T10:04:30;19.17;;;17.57;;
1276;SDS011;631;51.024;13.826;2022-08-19T10:07:15;18.13;;;16.53;;
1276;SDS011;631;51.024;13.826;2022-08-19T10:09:41;19.43;;;17.83;;
1276;SDS011;631;51.024;13.826;2022-08-19T10:12:07;18.50;;;17.03;;
1276;SDS011;631;51.024;13.826;2022-08-19T10:14:33;18.67;;;17.17;;
1276;SDS011;631;51.024;13.826;2022-08-19T10:16:59;18.90;;;17.37;;
1276;SDS011;631;51.024;13.826;2022-08-19T10:19:27;17.67;;;16.17;;
1276;SDS011;631;51.024;13.826;2022-08-19T10:21:57;16.77;;;15.40;;
1276;SDS011;631;51.024;13.826;2022-08-19T10:24:23;17.20;;;15.70;;
1276;SDS011;631;51.024;13.826;2022-08-19T10:26:50;17.00;;;15.70;;
1276;SDS011;631;51.024;13.826;2022-08-19T10:29:16;16.93;;;15.53;;
1276;SDS011;631;51.024;13.826;2022-08-19T10:31:42;15.80;;;14.50;;
1276;SDS011;631;51.024;13.826;2022-08-19T10:34:08;15.63;;;14.43;;
1276;SDS011;631;51.024;13.826;2022-08-19T10:36:34;15.27;;;14.17;;
1276;SDS011;631;51.024;13.826;2022-08-19T10:39:03;15.07;;;13.87;;
1276;SDS011;631;51.024;13.826;2022-08-19T10:41:31;15.70;;;14.43;;
1276;SDS011;631;51.024;13.826;2022-08-19T10:44:02;13.70;;;12.63;;
1276;SDS011;631;51.024;13.826;2022-08-19T10:46:30;13.63;;;12.63;;
1276;SDS011;631;51.024;13.826;2022-08-19T10:48:57;13.30;;;12.30;;
1276;SDS011;631;51.024;13.826;2022-08-19T10:51:24;12.20;;;11.30;;
1276;SDS011;631;51.024;13.826;2022-08-19T10:54:08;13.00;;;12.00;;
1276;SDS011;631;51.024;13.826;2022-08-19T10:56:35;13.40;;;12.47;;
1276;SDS011;631;51.024;13.826;2022-08-19T10:59:16;12.43;;;11.60;;
1276;SDS011;631;51.024;13.826;2022-08-19T11:01:45;13.30;;;12.40;;
1276;SDS011;631;51.024;13.826;2022-08-19T11:04:11;13.43;;;12.43;;
1276;SDS011;631;51.024;13.826;2022-08-19T11:06:38;14.00;;;13.10;;
1276;SDS011;631;51.024;13.826;2022-08-19T11:09:06;13.07;;;12.27;;
1276;SDS011;631;51.024;13.826;2022-08-19T11:11:33;13.87;;;12.97;;
1276;SDS011;631;51.024;13.826;2022-08-19T11:14:05;13.33;;;12.43;;
1276;SDS011;631;51.024;13.826;2022-08-19T11:16:34;13.13;;;12.13;;
1276;SDS011;631;51.024;13.826;2022-08-19T11:19:01;12.10;;;11.30;;
1276;SDS011;631;51.024;13.826;2022-08-19T11:21:31;11.70;;;10.90;;
1276;SDS011;631;51.024;13.826;2022-08-19T11:24:08;11.20;;;10.40;;
1276;SDS011;631;51.024;13.826;2022-08-19T11:26:36;11.73;;;10.93;;
1276;SDS011;631;51.024;13.826;2022-08-19T11:29:03;11.50;;;10.70;;
1276;SDS011;631;51.024;13.826;2022-08-19T11:31:31;10.90;;;10.20;;
1276;SDS011;631;51.024;13.826;2022-08-19T11:33:59;12.00;;;11.20;;
1276;SDS011;631;51.024;13.826;2022-08-19T11:36:26;10.63;;;9.90;;
1276;SDS011;631;51.024;13.826;2022-08-19T11:38:52;12.10;;;11.20;;
1276;SDS011;631;51.024;13.826;2022-08-19T11:41:19;11.63;;;10.87;;
1276;SDS011;631;51.024;13.826;2022-08-19T11:43:47;13.30;;;12.20;;
1276;SDS011;631;51.024;13.826;2022-08-19T11:46:14;12.97;;;12.07;;
1276;SDS011;631;51.024;13.826;2022-08-19T11:48:40;14.20;;;13.10;;
1276;SDS011;631;51.024;13.826;2022-08-19T11:51:08;14.80;;;13.70;;
1276;SDS011;631;51.024;13.826;2022-08-19T11:53:35;14.90;;;13.83;;
1276;SDS011;631;51.024;13.826;2022-08-19T11:56:01;13.80;;;12.80;;
1276;SDS011;631;51.024;13.826;2022-08-19T11:58:28;14.90;;;13.73;;
1276;SDS011;631;51.024;13.826;2022-08-19T12:00:54;14.70;;;13.60;;
1276;SDS011;631;51.024;13.826;2022-08-19T12:03:20;16.70;;;15.50;;
1276;SDS011;631;51.024;13.826;2022-08-19T12:05:46;16.07;;;14.87;;
1276;SDS011;631;51.024;13.826;2022-08-19T12:08:13;15.57;;;14.20;;
1276;SDS011;631;51.024;13.826;2022-08-19T12:10:40;15.37;;;14.17;;
1276;SDS011;631;51.024;13.826;2022-08-19T12:13:10;16.50;;;15.30;;
1276;SDS011;631;51.024;13.826;2022-08-19T12:15:39;15.03;;;13.83;;
1276;SDS011;631;51.024;13.826;2022-08-19T12:18:06;15.13;;;13.83;;
1276;SDS011;631;51.024;13.826;2022-08-19T12:20:36;16.43;;;15.17;;
1276;SDS011;631;51.024;13.826;2022-08-19T12:23:05;16.80;;;15.47;;
1276;SDS011;631;51.024;13.826;2022-08-19T12:25:32;16.70;;;15.27;;
1276;SDS011;631;51.024;13.826;2022-08-19T12:27:58;17.50;;;16.10;;
1276;SDS011;631;51.024;13.826;2022-08-19T12:30:23;16.57;;;15.27;;
1276;SDS011;631;51.024;13.826;2022-08-19T12:32:49;18.07;;;16.57;;
1276;SDS011;631;51.024;13.826;2022-08-19T12:35:16;17.73;;;16.23;;
1276;SDS011;631;51.024;13.826;2022-08-19T12:37:45;19.47;;;17.97;;
1276;SDS011;631;51.024;13.826;2022-08-19T12:40:12;21.13;;;19.33;;
1276;SDS011;631;51.024;13.826;2022-08-19T12:42:40;23.13;;;21.13;;
1276;SDS011;631;51.024;13.826;2022-08-19T12:45:07;23.53;;;21.57;;
1276;SDS011;631;51.024;13.826;2022-08-19T12:47:34;24.43;;;22.30;;
1276;SDS011;631;51.024;13.826;2022-08-19T12:50:00;23.57;;;21.50;;
1276;SDS011;631;51.024;13.826;2022-08-19T12:52:26;22.87;;;20.87;;
1276;SDS011;631;51.024;13.826;2022-08-19T12:54:53;23.77;;;21.67;;
1276;SDS011;631;51.024;13.826;2022-08-19T12:57:21;25.37;;;23.17;;
1276;SDS011;631;51.024;13.826;2022-08-19T12:59:51;29.60;;;26.80;;
1276;SDS011;631;51.024;13.826;2022-08-19T13:02:20;23.80;;;21.50;;
1276;SDS011;631;51.024;13.826;2022-08-19T13:04:47;24.20;;;22.10;;
1276;SDS011;631;51.024;13.826;2022-08-19T13:07:13;22.80;;;20.70;;
1276;SDS011;631;51.024;13.826;2022-08-19T13:09:38;24.47;;;22.27;;
1276;SDS011;631;51.024;13.826;2022-08-19T13:12:07;23.87;;;21.87;;
1276;SDS011;631;51.024;13.826;2022-08-19T13:14:37;23.70;;;21.60;;
1276;SDS011;631;51.024;13.826;2022-08-19T13:17:05;22.57;;;20.57;;
1276;SDS011;631;51.024;13.826;2022-08-19T13:19:31;21.80;;;19.80;;
1276;SDS011;631;51.024;13.826;2022-08-19T13:21:57;22.63;;;20.63;;
1276;SDS011;631;51.024;13.826;2022-08-19T13:24:23;22.17;;;20.27;;
1276;SDS011;631;51.024;13.826;2022-08-19T13:26:49;21.43;;;19.43;;
1276;SDS011;631;51.024;13.826;2022-08-19T13:29:15;22.67;;;20.70;;
1276;SDS011;631;51.024;13.826;2022-08-19T13:31:59;20.83;;;19.10;;
1276;SDS011;631;51.024;13.826;2022-08-19T13:34:43;21.27;;;19.30;;
1276;SDS011;631;51.024;13.826;2022-08-19T13:37:11;21.80;;;20.00;;
1276;SDS011;631;51.024;13.826;2022-08-19T13:39:37;23.83;;;21.73;;
1276;SDS011;631;51.024;13.826;2022-08-19T13:42:02;21.27;;;19.47;;
1276;SDS011;631;51.024;13.826;2022-08-19T13:44:29;22.67;;;20.77;;
1276;SDS011;631;51.024;13.826;2022-08-19T13:46:59;21.70;;;19.90;;
1276;SDS011;631;51.024;13.826;2022-08-19T13:49:28;22.03;;;20.13;;
1276;SDS011;631;51.024;13.826;2022-08-19T13:51:56;23.70;;;21.77;;
1276;SDS011;631;51.024;13.826;2022-08-19T13:54:22;23.77;;;21.70;;
1276;SDS011;631;51.024;13.826;2022-08-19T13:56:47;23.63;;;21.53;;
1276;SDS011;631;51.024;13.826;2022-08-19T13:59:13;23.67;;;21.57;;
1276;SDS011;631;51.024;13.826;2022-08-19T14:01:39;25.60;;;23.30;;
1276;SDS011;631;51.024;13.826;2022-08-19T14:04:07;24.23;;;22.03;;
1276;SDS011;631;51.024;13.826;2022-08-19T14:06:33;23.77;;;21.73;;
1276;SDS011;631;51.024;13.826;2022-08-19T14:08:59;22.90;;;21.00;;
1276;SDS011;631;51.024;13.826;2022-08-19T14:11:27;26.17;;;23.77;;
1276;SDS011;631;51.024;13.826;2022-08-19T14:13:53;26.13;;;23.83;;
1276;SDS011;631;51.024;13.826;2022-08-19T14:16:19;25.53;;;23.20;;
1276;SDS011;631;51.024;13.826;2022-08-19T14:18:44;27.67;;;25.00;;
1276;SDS011;631;51.024;13.826;2022-08-19T14:21:17;25.97;;;23.67;;
1276;SDS011;631;51.024;13.826;2022-08-19T14:23:50;26.50;;;24.13;;
1276;SDS011;631;51.024;13.826;2022-08-19T14:26:16;26.73;;;24.43;;
1276;SDS011;631;51.024;13.826;2022-08-19T14:28:43;27.10;;;24.70;;
1276;SDS011;631;51.024;13.826;2022-08-19T14:31:11;28.03;;;25.43;;
1276;SDS011;631;51.024;13.826;2022-08-19T14:33:38;26.60;;;24.17;;
1276;SDS011;631;51.024;13.826;2022-08-19T14:36:04;27.97;;;25.53;;
1276;SDS011;631;51.024;13.826;2022-08-19T14:38:30;29.53;;;26.93;;
1276;SDS011;631;51.024;13.826;2022-08-19T14:41:05;27.50;;;24.90;;
1276;SDS011;631;51.024;13.826;2022-08-19T14:43:41;26.80;;;24.30;;
1276;SDS011;631;51.024;13.826;2022-08-19T14:46:11;29.37;;;26.60;;
1276;SDS011;631;51.024;13.826;2022-08-19T14:48:38;28.60;;;25.73;;
1276;SDS011;631;51.024;13.826;2022-08-19T14:51:04;31.23;;;28.30;;
1276;SDS011;631;51.024;13.826;2022-08-19T14:53:30;29.47;;;26.87;;
1276;SDS011;631;51.024;13.826;2022-08-19T14:55:58;30.03;;;27.37;;
1276;SDS011;631;51.024;13.826;2022-08-19T14:58:24;32.57;;;29.27;;
1276;SDS011;631;51.024;13.826;2022-08-19T15:00:50;33.00;;;29.80;;
1276;SDS011;631;51.024;13.826;2022-08-19T15:03:15;31.07;;;28.03;;
1276;SDS011;631;51.024;13.826;2022-08-19T15:05:41;33.00;;;29.70;;